Time;durP1;ratioP1;P1;durP2;ratioP2;P2;SDS_P1;SDS_P2;PMS_P1;PMS_P2;Temp;Humidity;BMP_temperature;BMP_pressure;BME280_temperature;BME280_humidity;BME280_pressure;Samples;Min_cycle;Max_cycle;Signal;HPM_P1;HPM_P2
2023/04/13 00:00:07;;;;;;;4.18;2.40;;;5.40;99.90;;;;;;5051285;28;20044;-81
2023/04/13 00:02:37;;;;;;;3.67;2.28;;;5.50;99.90;;;;;;5051464;28;20067;-79
2023/04/13 00:05:06;;;;;;;4.68;2.72;;;5.50;99.90;;;;;;5049351;28;20061;-80
2023/04/13 00:07:32;;;;;;;3.35;2.55;;;5.50;99.90;;;;;;5050121;28;20128;-81
2023/04/13 00:10:01;;;;;;;3.33;2.47;;;5.60;99.90;;;;;;5051203;28;20056;-79
2023/04/13 00:12:27;;;;;;;4.03;2.50;;;5.60;99.90;;;;;;5048921;28;20059;-81
2023/04/13 00:14:53;;;;;;;2.75;2.05;;;5.70;99.90;;;;;;5051043;28;20057;-81
2023/04/13 00:17:19;;;;;;;3.65;2.30;;;5.70;99.90;;;;;;5051079;28;20052;-81
2023/04/13 00:19:46;;;;;;;2.92;2.10;;;5.70;99.90;;;;;;5033584;28;20388;-82
2023/04/13 00:22:13;;;;;;;3.08;2.30;;;5.80;99.90;;;;;;5050933;28;20049;-79
2023/04/13 00:24:38;;;;;;;3.95;2.17;;;5.80;99.90;;;;;;5050651;28;20041;-79
2023/04/13 00:27:04;;;;;;;4.20;2.85;;;5.80;99.90;;;;;;5050825;28;20048;-79
2023/04/13 00:29:30;;;;;;;2.95;2.28;;;5.90;99.90;;;;;;5049716;28;20051;-79
2023/04/13 00:31:55;;;;;;;3.40;2.00;;;5.90;99.90;;;;;;5050924;28;20049;-82
2023/04/13 00:34:21;;;;;;;3.47;2.08;;;5.90;99.90;;;;;;5050670;28;20049;-80
2023/04/13 00:36:47;;;;;;;2.95;2.05;;;6.00;99.90;;;;;;5049627;28;20049;-79
2023/04/13 00:39:14;;;;;;;3.25;2.22;;;6.00;99.90;;;;;;5051012;28;20052;-80
2023/04/13 00:41:40;;;;;;;4.85;2.42;;;6.00;99.90;;;;;;5041015;28;20454;-81
2023/04/13 00:44:07;;;;;;;4.00;2.33;;;6.00;99.90;;;;;;5050842;28;20045;-80
2023/04/13 00:46:33;;;;;;;3.53;2.13;;;6.00;99.90;;;;;;5050011;28;20044;-80
2023/04/13 00:49:00;;;;;;;4.00;2.20;;;6.00;99.90;;;;;;5049403;28;20044;-79
2023/04/13 00:51:29;;;;;;;4.00;2.08;;;6.10;99.90;;;;;;5050334;28;20378;-81
2023/04/13 00:53:57;;;;;;;3.92;1.90;;;6.10;99.90;;;;;;5049826;28;20134;-79
2023/04/13 00:56:26;;;;;;;2.78;1.90;;;6.10;99.90;;;;;;5050829;28;20087;-80
2023/04/13 00:58:52;;;;;;;2.83;1.90;;;6.20;99.90;;;;;;5050395;28;20061;-80
2023/04/13 01:01:18;;;;;;;3.42;1.75;;;6.30;99.90;;;;;;5050141;28;20520;-80
2023/04/13 01:03:44;;;;;;;2.47;1.75;;;6.30;99.90;;;;;;5048656;28;20041;-80
2023/04/13 01:06:23;;;;;;;2.78;1.50;;;6.30;99.90;;;;;;5050273;28;20065;-79
2023/04/13 01:09:19;;;;;;;2.50;1.58;;;6.30;99.90;;;;;;5045772;28;20064;-80
2023/04/13 01:11:58;;;;;;;2.70;1.60;;;6.30;99.90;;;;;;5050856;28;20037;-80
2023/04/13 01:14:32;;;;;;;2.92;1.70;;;6.30;99.90;;;;;;5044962;28;20086;-80
2023/04/13 01:17:02;;;;;;;2.75;1.67;;;6.20;99.90;;;;;;5048797;28;20132;-79
2023/04/13 01:19:31;;;;;;;3.30;1.75;;;6.20;99.90;;;;;;5050590;28;20087;-80
2023/04/13 01:21:57;;;;;;;2.55;1.45;;;6.10;99.90;;;;;;5050973;28;20037;-80
2023/04/13 01:24:59;;;;;;;3.28;1.70;;;6.00;99.90;;;;;;5050284;28;20053;-80
2023/04/13 01:28:17;;;;;;;2.97;1.63;;;6.00;99.90;;;;;;5049037;28;20378;-79
2023/04/13 01:30:45;;;;;;;4.60;1.85;;;6.00;99.90;;;;;;5036651;28;20139;-80
2023/04/13 01:33:15;;;;;;;3.22;1.52;;;5.90;99.90;;;;;;5050029;28;20111;-80
2023/04/13 01:35:41;;;;;;;3.03;1.60;;;5.90;99.90;;;;;;5049788;28;20041;-80
2023/04/13 01:38:07;;;;;;;2.63;1.50;;;5.90;99.90;;;;;;5050129;28;20045;-80
2023/04/13 01:40:35;;;;;;;4.40;1.55;;;5.80;99.90;;;;;;5049560;28;20067;-80
2023/04/13 01:43:02;;;;;;;3.03;1.30;;;5.80;99.90;;;;;;5050215;28;20099;-78
2023/04/13 01:45:35;;;;;;;4.80;1.50;;;5.80;99.90;;;;;;5050330;28;20045;-79
2023/04/13 01:48:10;;;;;;;2.65;1.20;;;5.80;99.90;;;;;;5049044;28;20060;-79
2023/04/13 01:50:43;;;;;;;3.30;1.50;;;5.80;99.90;;;;;;5044215;28;20041;-78
2023/04/13 01:53:15;;;;;;;3.50;1.35;;;5.80;99.90;;;;;;5050534;28;20445;-77
2023/04/13 01:55:42;;;;;;;2.38;1.38;;;5.80;99.90;;;;;;5050143;28;20049;-79
2023/04/13 01:58:11;;;;;;;2.80;1.30;;;5.80;99.90;;;;;;5049028;28;20092;-78
2023/04/13 02:00:41;;;;;;;3.05;1.25;;;5.80;99.90;;;;;;5050212;28;20112;-79
2023/04/13 02:03:09;;;;;;;3.42;1.50;;;5.80;99.90;;;;;;5047554;28;20124;-79
2023/04/13 02:05:39;;;;;;;2.97;1.40;;;5.70;99.90;;;;;;5048790;28;20511;-79
2023/04/13 02:08:06;;;;;;;3.15;1.42;;;5.80;99.90;;;;;;5049645;28;20505;-78
2023/04/13 02:10:34;;;;;;;2.55;1.13;;;5.80;99.90;;;;;;5050388;28;20729;-80
2023/04/13 02:13:03;;;;;;;3.15;1.30;;;5.80;99.90;;;;;;5049825;28;20077;-80
2023/04/13 02:15:32;;;;;;;2.33;1.50;;;5.80;99.90;;;;;;5049588;28;20072;-79
2023/04/13 02:17:58;;;;;;;2.83;1.55;;;5.80;99.90;;;;;;5048800;28;20134;-79
2023/04/13 02:20:24;;;;;;;2.80;1.50;;;5.90;99.90;;;;;;5049555;28;20079;-78
2023/04/13 02:22:49;;;;;;;3.75;1.45;;;5.80;99.90;;;;;;5049707;28;20045;-79
2023/04/13 02:25:16;;;;;;;2.60;1.30;;;5.90;99.90;;;;;;5049557;28;20053;-79
2023/04/13 02:27:42;;;;;;;2.28;1.20;;;5.70;99.90;;;;;;5051784;28;20481;-79
2023/04/13 02:30:08;;;;;;;4.25;1.48;;;5.80;99.90;;;;;;5053054;28;20052;-78
2023/04/13 02:32:37;;;;;;;3.03;1.70;;;5.80;99.90;;;;;;5052959;28;20448;-78
2023/04/13 02:35:03;;;;;;;2.38;1.30;;;5.80;99.90;;;;;;5053207;28;20056;-79
2023/04/13 02:37:30;;;;;;;3.22;1.20;;;5.80;99.90;;;;;;5053420;28;20071;-78
2023/04/13 02:39:56;;;;;;;3.65;1.60;;;5.80;99.90;;;;;;5053390;28;20037;-78
2023/04/13 02:42:22;;;;;;;2.47;1.35;;;5.70;99.90;;;;;;5052102;28;20056;-78
2023/04/13 02:44:48;;;;;;;3.05;1.50;;;5.70;99.90;;;;;;5053078;28;21962;-79
2023/04/13 02:47:15;;;;;;;1.92;1.02;;;5.70;99.90;;;;;;5053147;28;20045;-78
2023/04/13 02:49:42;;;;;;;4.05;1.60;;;5.70;99.90;;;;;;5053261;28;20049;-79
2023/04/13 02:52:08;;;;;;;3.15;1.40;;;5.80;99.90;;;;;;5053240;28;20052;-77
2023/04/13 02:54:34;;;;;;;2.75;1.50;;;5.80;99.90;;;;;;5053388;28;20057;-78
2023/04/13 02:57:00;;;;;;;1.90;1.10;;;5.70;99.90;;;;;;5052953;28;20075;-78
2023/04/13 02:59:27;;;;;;;2.45;1.40;;;5.70;99.90;;;;;;5051881;28;20083;-78
2023/04/13 03:01:57;;;;;;;3.75;1.70;;;5.70;99.90;;;;;;5053019;28;20433;-78
2023/04/13 03:04:23;;;;;;;2.70;1.35;;;5.80;99.90;;;;;;5052626;28;20131;-77
2023/04/13 03:06:50;;;;;;;2.13;1.30;;;5.80;99.90;;;;;;5052168;28;20140;-79
2023/04/13 03:09:16;;;;;;;2.08;1.50;;;5.80;99.90;;;;;;5052980;28;20049;-77
2023/04/13 03:11:42;;;;;;;3.03;1.10;;;5.80;99.90;;;;;;5052586;28;20091;-78
2023/04/13 03:14:11;;;;;;;2.60;1.17;;;5.80;99.90;;;;;;5051406;28;20081;-78
2023/04/13 03:16:37;;;;;;;1.98;1.20;;;5.80;99.90;;;;;;5052600;28;20081;-78
2023/04/13 03:19:04;;;;;;;2.00;1.27;;;5.80;99.90;;;;;;5052420;28;20076;-78
2023/04/13 03:21:30;;;;;;;4.05;1.60;;;5.80;99.90;;;;;;5052291;28;20056;-79
2023/04/13 03:23:57;;;;;;;2.88;1.42;;;5.90;99.90;;;;;;5052510;28;20467;-78
2023/04/13 03:26:24;;;;;;;5.45;1.52;;;5.90;99.90;;;;;;5050615;28;20051;-78
2023/04/13 03:28:50;;;;;;;3.55;1.50;;;5.90;99.90;;;;;;5048368;28;20041;-77
2023/04/13 03:31:16;;;;;;;2.55;1.60;;;5.90;99.90;;;;;;5050444;28;20493;-78
2023/04/13 03:33:42;;;;;;;2.53;1.40;;;5.80;99.90;;;;;;5049711;28;20382;-78
2023/04/13 03:36:09;;;;;;;1.98;1.10;;;5.90;99.90;;;;;;5050685;28;20065;-78
2023/04/13 03:38:35;;;;;;;4.25;1.60;;;5.80;99.90;;;;;;5051129;28;20041;-77
2023/04/13 03:41:01;;;;;;;2.70;1.65;;;5.90;99.90;;;;;;5052223;28;20045;-77
2023/04/13 03:43:27;;;;;;;2.63;1.40;;;5.90;99.90;;;;;;5051954;28;20044;-79
2023/04/13 03:45:52;;;;;;;3.03;1.50;;;5.90;99.90;;;;;;5041421;28;20049;-78
2023/04/13 03:48:18;;;;;;;2.42;1.50;;;5.90;99.90;;;;;;5051869;28;20072;-78
2023/04/13 03:50:44;;;;;;;2.95;1.65;;;5.90;99.90;;;;;;5050736;28;20037;-77
2023/04/13 03:53:09;;;;;;;2.28;1.40;;;5.90;99.90;;;;;;5050802;28;20049;-77
2023/04/13 03:55:36;;;;;;;2.80;1.20;;;5.90;99.90;;;;;;5051869;28;20045;-78
2023/04/13 03:58:02;;;;;;;2.63;1.50;;;5.90;99.90;;;;;;5051897;28;20436;-77
2023/04/13 04:00:28;;;;;;;2.20;1.40;;;6.00;99.90;;;;;;5050976;28;20048;-79
2023/04/13 04:02:54;;;;;;;4.55;1.63;;;6.00;99.90;;;;;;5051755;28;20055;-77
2023/04/13 04:05:20;;;;;;;2.08;1.33;;;6.00;99.90;;;;;;5049990;28;20045;-77
2023/04/13 04:07:45;;;;;;;2.83;1.52;;;6.00;99.90;;;;;;5052022;28;20049;-77
2023/04/13 04:10:11;;;;;;;2.58;1.60;;;6.00;99.90;;;;;;5051244;28;20049;-77
2023/04/13 04:12:37;;;;;;;2.47;1.40;;;6.00;99.90;;;;;;5051735;28;20090;-78
2023/04/13 04:15:04;;;;;;;3.17;1.50;;;6.00;99.90;;;;;;5051264;28;20037;-77
2023/04/13 04:17:30;;;;;;;3.17;1.45;;;6.10;99.90;;;;;;5051345;28;20041;-76
2023/04/13 04:19:55;;;;;;;3.13;1.80;;;6.10;99.90;;;;;;5051129;28;20579;-78
2023/04/13 04:22:28;;;;;;;3.53;1.65;;;6.10;99.90;;;;;;5051300;28;20052;-79
2023/04/13 04:25:00;;;;;;;3.95;2.20;;;6.10;99.90;;;;;;5034819;28;20044;-78
2023/04/13 04:27:26;;;;;;;3.03;2.10;;;6.10;99.90;;;;;;5050631;28;20055;-76
2023/04/13 04:29:57;;;;;;;2.53;1.73;;;6.10;99.90;;;;;;5051226;28;20041;-77
2023/04/13 04:32:24;;;;;;;3.00;1.77;;;6.10;99.90;;;;;;5049598;28;20048;-77
2023/04/13 04:34:53;;;;;;;3.28;2.10;;;6.10;99.90;;;;;;5049752;28;20052;-77
2023/04/13 04:37:20;;;;;;;4.35;2.20;;;6.10;99.90;;;;;;5050603;28;20444;-78
2023/04/13 04:39:45;;;;;;;3.83;1.80;;;6.10;99.90;;;;;;5051238;28;20049;-78
2023/04/13 04:42:11;;;;;;;2.53;1.60;;;6.20;99.90;;;;;;5033767;28;20048;-78
2023/04/13 04:44:38;;;;;;;3.63;1.63;;;6.20;99.90;;;;;;5051028;28;20074;-77
2023/04/13 04:47:04;;;;;;;2.35;1.50;;;6.20;99.90;;;;;;5051156;28;20049;-77
2023/04/13 04:49:30;;;;;;;2.97;1.85;;;6.20;99.90;;;;;;5049208;28;20044;-78
2023/04/13 04:51:56;;;;;;;2.33;1.45;;;6.20;99.90;;;;;;5050151;28;20049;-77
2023/04/13 04:54:23;;;;;;;3.60;2.00;;;6.20;99.90;;;;;;5032993;28;20393;-77
2023/04/13 04:56:50;;;;;;;2.58;1.50;;;6.20;99.90;;;;;;5050678;28;20060;-75
2023/04/13 04:59:18;;;;;;;3.83;2.22;;;6.10;99.90;;;;;;5049361;28;20053;-76
2023/04/13 05:01:44;;;;;;;4.05;1.85;;;6.10;99.90;;;;;;5049508;28;20057;-77
2023/04/13 05:04:10;;;;;;;3.58;1.90;;;6.30;99.90;;;;;;5050361;28;20097;-78
2023/04/13 05:06:40;;;;;;;3.35;2.25;;;6.20;99.90;;;;;;5050338;28;20088;-77
2023/04/13 05:09:07;;;;;;;2.63;1.92;;;6.10;99.90;;;;;;5050668;28;20053;-77
2023/04/13 05:11:33;;;;;;;3.58;2.10;;;6.20;99.90;;;;;;5050882;28;20137;-76
2023/04/13 05:13:59;;;;;;;3.13;1.70;;;6.10;99.90;;;;;;5049134;28;20099;-76
2023/04/13 05:16:29;;;;;;;4.55;1.63;;;6.10;99.90;;;;;;5050664;28;20053;-78
2023/04/13 05:18:55;;;;;;;4.88;1.90;;;6.10;99.90;;;;;;5049215;28;20595;-77
2023/04/13 05:21:21;;;;;;;3.00;1.60;;;6.10;99.90;;;;;;5050940;28;20114;-76
2023/04/13 05:23:47;;;;;;;4.40;2.35;;;6.00;99.90;;;;;;5048949;28;20079;-77
2023/04/13 05:26:14;;;;;;;3.47;1.85;;;6.00;99.90;;;;;;5050901;28;20045;-76
2023/04/13 05:28:40;;;;;;;4.72;1.77;;;5.90;99.90;;;;;;5050528;28;20053;-77
2023/04/13 05:31:08;;;;;;;4.53;2.20;;;5.90;99.90;;;;;;5050691;28;20401;-76
2023/04/13 05:33:34;;;;;;;4.05;2.20;;;5.90;99.90;;;;;;5049309;28;20085;-77
2023/04/13 05:36:01;;;;;;;3.35;2.17;;;5.90;99.90;;;;;;5050383;28;20088;-76
2023/04/13 05:38:26;;;;;;;3.80;2.00;;;5.90;99.90;;;;;;5050509;28;20111;-77
2023/04/13 05:40:53;;;;;;;3.28;1.73;;;6.10;99.90;;;;;;5050487;28;20045;-75
2023/04/13 05:43:19;;;;;;;6.00;2.25;;;6.00;99.90;;;;;;5049213;28;20493;-76
2023/04/13 05:45:46;;;;;;;4.47;2.20;;;5.90;99.90;;;;;;5049785;28;20048;-77
2023/04/13 05:48:12;;;;;;;3.40;1.92;;;5.90;99.90;;;;;;5049839;28;20116;-77
2023/04/13 05:50:37;;;;;;;4.13;1.73;;;6.00;99.90;;;;;;5049852;28;20080;-76
2023/04/13 05:53:06;;;;;;;6.45;2.17;;;6.10;99.90;;;;;;5050297;28;20103;-76
2023/04/13 05:55:32;;;;;;;3.75;2.30;;;6.10;99.90;;;;;;5049648;28;20045;-76
2023/04/13 05:57:59;;;;;;;5.25;2.40;;;6.20;99.90;;;;;;5049872;28;20048;-77
2023/04/13 06:00:26;;;;;;;3.47;2.10;;;6.20;99.90;;;;;;5050294;28;20431;-76
2023/04/13 06:02:52;;;;;;;3.90;2.30;;;6.20;99.90;;;;;;5051488;28;20051;-77
2023/04/13 06:05:18;;;;;;;3.72;2.30;;;6.30;99.90;;;;;;5053502;28;20056;-76
2023/04/13 06:07:45;;;;;;;5.30;2.85;;;6.40;99.90;;;;;;5053948;28;20041;-76
2023/04/13 06:10:18;;;;;;;5.63;2.72;;;6.40;99.90;;;;;;5054038;28;20408;-76
2023/04/13 06:12:47;;;;;;;4.75;2.58;;;6.50;99.90;;;;;;5053564;28;20052;-72
2023/04/13 06:15:13;;;;;;;5.60;2.50;;;6.60;99.90;;;;;;5052352;28;20052;-72
2023/04/13 06:17:39;;;;;;;6.53;3.13;;;6.70;99.90;;;;;;5053624;28;20056;-72
2023/04/13 06:20:06;;;;;;;5.50;2.80;;;6.70;99.90;;;;;;5053429;28;20211;-72
2023/04/13 06:22:32;;;;;;;4.75;2.95;;;6.70;99.90;;;;;;5053810;28;20045;-71
2023/04/13 06:24:58;;;;;;;4.00;2.67;;;6.70;99.90;;;;;;5053452;28;20049;-71
2023/04/13 06:27:23;;;;;;;4.47;3.17;;;6.80;99.90;;;;;;5052922;28;20044;-72
2023/04/13 06:29:50;;;;;;;4.30;2.60;;;6.90;99.90;;;;;;5053611;28;20554;-73
2023/04/13 06:32:15;;;;;;;4.88;2.53;;;6.90;99.90;;;;;;5053297;28;20049;-71
2023/04/13 06:34:43;;;;;;;5.47;2.80;;;7.00;99.90;;;;;;5052564;28;20063;-73
2023/04/13 06:37:09;;;;;;;4.65;2.80;;;7.00;99.90;;;;;;5052965;28;20045;-72
2023/04/13 06:39:36;;;;;;;5.88;3.08;;;7.10;99.90;;;;;;5053587;28;20049;-72
2023/04/13 06:42:03;;;;;;;4.50;2.50;;;7.20;99.90;;;;;;5035911;28;20053;-73
2023/04/13 06:44:29;;;;;;;4.93;2.70;;;7.20;99.90;;;;;;5051385;28;20044;-72
2023/04/13 06:46:55;;;;;;;5.20;2.95;;;7.20;99.90;;;;;;5053584;28;20408;-73
2023/04/13 06:49:20;;;;;;;6.32;3.00;;;7.20;99.90;;;;;;5052821;28;20205;-72
2023/04/13 06:51:46;;;;;;;6.50;3.15;;;7.30;99.90;;;;;;5051811;28;20049;-73
2023/04/13 06:54:13;;;;;;;5.10;2.75;;;7.30;99.90;;;;;;5052583;28;20048;-72
2023/04/13 06:56:38;;;;;;;4.55;3.20;;;7.40;99.90;;;;;;5053142;28;20051;-73
2023/04/13 06:59:04;;;;;;;5.00;2.85;;;7.50;99.90;;;;;;5052449;28;20049;-72
2023/04/13 07:01:30;;;;;;;4.85;2.70;;;7.50;99.90;;;;;;5052605;28;20045;-72
2023/04/13 07:03:56;;;;;;;3.97;2.60;;;7.70;99.90;;;;;;5052065;28;20076;-73
2023/04/13 07:06:22;;;;;;;4.22;2.72;;;7.80;99.90;;;;;;5052565;28;20469;-72
2023/04/13 07:08:48;;;;;;;3.55;2.70;;;7.80;99.90;;;;;;5049080;28;20514;-72
2023/04/13 07:11:14;;;;;;;4.53;2.67;;;7.90;99.90;;;;;;5051418;28;20037;-73
2023/04/13 07:13:40;;;;;;;4.68;2.40;;;7.80;99.90;;;;;;5045006;28;20053;-72
2023/04/13 07:16:10;;;;;;;4.93;2.65;;;7.80;99.90;;;;;;5045649;28;20049;-73
2023/04/13 07:18:37;;;;;;;3.42;2.50;;;7.70;99.90;;;;;;5044097;28;20119;-77
2023/04/13 07:21:03;;;;;;;3.75;2.25;;;7.70;99.90;;;;;;5047609;28;20052;-75
2023/04/13 07:23:29;;;;;;;3.50;2.20;;;7.80;99.90;;;;;;5051866;28;20110;-75
2023/04/13 07:25:54;;;;;;;3.65;2.65;;;7.90;99.90;;;;;;5049980;28;20061;-77
2023/04/13 07:28:20;;;;;;;5.45;3.17;;;7.70;99.90;;;;;;5050666;28;20113;-75
2023/04/13 07:30:46;;;;;;;4.70;2.33;;;7.80;99.90;;;;;;5050104;28;20048;-75
2023/04/13 07:33:12;;;;;;;3.95;2.25;;;7.80;99.90;;;;;;5051020;28;20045;-76
2023/04/13 07:35:38;;;;;;;4.65;1.95;;;7.80;99.90;;;;;;5050094;28;20565;-76
2023/04/13 07:38:05;;;;;;;5.10;2.42;;;7.80;99.90;;;;;;5051786;28;20047;-79
2023/04/13 07:40:30;;;;;;;4.15;2.80;;;7.80;99.90;;;;;;5050634;28;20049;-78
2023/04/13 07:42:56;;;;;;;4.65;2.47;;;7.90;99.90;;;;;;5051350;28;20068;-76
2023/04/13 07:45:22;;;;;;;5.20;2.97;;;8.20;99.90;;;;;;5051050;28;20044;-75
2023/04/13 07:47:48;;;;;;;3.17;2.33;;;8.30;99.90;;;;;;5033577;28;20055;-77
2023/04/13 07:50:17;;;;;;;3.42;2.40;;;8.40;99.90;;;;;;5051381;28;20071;-77
2023/04/13 07:52:42;;;;;;;3.75;2.10;;;8.50;99.90;;;;;;5051693;28;20073;-78
2023/04/13 07:55:08;;;;;;;6.22;2.50;;;8.50;99.90;;;;;;5049902;28;20084;-78
2023/04/13 07:57:35;;;;;;;3.75;1.92;;;8.40;99.90;;;;;;5051325;28;20120;-77
2023/04/13 08:00:02;;;;;;;6.50;1.88;;;8.50;99.90;;;;;;5051007;28;20537;-78
2023/04/13 08:02:29;;;;;;;6.47;1.88;;;8.40;99.90;;;;;;5051683;28;20106;-78
2023/04/13 08:04:55;;;;;;;3.15;1.90;;;8.40;99.90;;;;;;5051295;28;20138;-79
2023/04/13 08:07:21;;;;;;;3.50;1.55;;;8.40;99.90;;;;;;5051184;28;20048;-77
2023/04/13 08:09:48;;;;;;;4.72;1.30;;;8.40;99.90;;;;;;5050814;28;20099;-76
2023/04/13 08:12:15;;;;;;;2.45;1.42;;;8.40;99.90;;;;;;5050855;28;20102;-77
2023/04/13 08:14:41;;;;;;;2.60;1.50;;;8.40;99.90;;;;;;5050996;28;20052;-77
2023/04/13 08:17:08;;;;;;;3.35;1.60;;;8.30;99.90;;;;;;5050998;28;20045;-86
2023/04/13 08:19:34;;;;;;;3.78;1.60;;;8.30;99.90;;;;;;5050735;28;20094;-88
2023/04/13 08:21:59;;;;;;;3.20;1.50;;;8.20;99.90;;;;;;5050160;28;20072;-77
2023/04/13 08:24:26;;;;;;;6.07;1.35;;;8.40;99.90;;;;;;5050526;28;20497;-78
2023/04/13 08:26:53;;;;;;;3.00;1.55;;;8.60;99.90;;;;;;5051012;28;20052;-73
2023/04/13 08:29:20;;;;;;;3.38;1.33;;;8.70;99.90;;;;;;5050881;28;20053;-72
2023/04/13 08:31:46;;;;;;;4.80;1.83;;;8.70;99.90;;;;;;5049909;28;20374;-72
2023/04/13 08:34:12;;;;;;;3.15;1.50;;;9.00;99.90;;;;;;5050290;28;20055;-72
2023/04/13 08:36:39;;;;;;;4.07;1.90;;;9.10;99.90;;;;;;5049484;28;20080;-72
2023/04/13 08:39:08;;;;;;;3.55;1.63;;;9.10;99.90;;;;;;5048591;28;20033;-73
2023/04/13 08:41:39;;;;;;;3.88;1.65;;;8.90;99.90;;;;;;5048892;28;20040;-73
2023/04/13 08:44:06;;;;;;;2.47;1.40;;;8.80;99.90;;;;;;5049092;28;20098;-73
2023/04/13 08:46:35;;;;;;;3.28;1.90;;;8.90;99.90;;;;;;5049935;28;20142;-73
2023/04/13 08:49:02;;;;;;;2.95;1.80;;;8.80;99.90;;;;;;5050279;28;20037;-72
2023/04/13 08:51:30;;;;;;;3.35;1.90;;;8.80;99.90;;;;;;5049213;28;20048;-73
2023/04/13 08:53:55;;;;;;;3.53;2.00;;;8.70;99.90;;;;;;5050395;28;20493;-72
2023/04/13 08:56:22;;;;;;;4.47;2.20;;;8.80;99.90;;;;;;5050210;28;20052;-72
2023/04/13 08:58:51;;;;;;;4.20;2.17;;;8.70;99.90;;;;;;5049372;28;20130;-72
2023/04/13 09:01:19;;;;;;;4.53;2.70;;;8.60;99.90;;;;;;5049314;28;20179;-71
2023/04/13 09:03:54;;;;;;;5.05;2.88;;;8.50;99.90;;;;;;5049840;28;20514;-72
2023/04/13 09:06:39;;;;;;;4.57;2.97;;;8.40;99.90;;;;;;5048611;28;20057;-72
2023/04/13 09:09:09;;;;;;;3.55;2.40;;;8.40;99.90;;;;;;5050385;28;20052;-72
2023/04/13 09:11:36;;;;;;;4.25;2.38;;;8.30;99.90;;;;;;5048876;28;20040;-73
2023/04/13 09:14:02;;;;;;;3.13;2.00;;;8.40;99.90;;;;;;5050148;28;20056;-72
2023/04/13 09:16:28;;;;;;;3.45;2.40;;;8.40;99.90;;;;;;5050073;28;20060;-71
2023/04/13 09:18:55;;;;;;;4.85;2.60;;;8.30;99.90;;;;;;5049844;28;20402;-71
2023/04/13 09:21:23;;;;;;;3.00;2.10;;;8.30;99.90;;;;;;5049929;28;20124;-73
2023/04/13 09:23:58;;;;;;;2.88;1.80;;;8.20;99.90;;;;;;5049755;28;20131;-72
2023/04/13 09:26:24;;;;;;;3.83;1.77;;;8.00;99.90;;;;;;5048676;28;20084;-71
2023/04/13 09:28:53;;;;;;;2.40;1.52;;;7.70;99.90;;;;;;5047476;28;20041;-71
2023/04/13 09:31:19;;;;;;;2.92;1.77;;;7.40;99.90;;;;;;5044297;28;20093;-71
2023/04/13 09:33:47;;;;;;;2.58;1.00;;;7.20;99.90;;;;;;5042605;28;20044;-75
2023/04/13 09:36:15;;;;;;;1.52;0.70;;;6.90;99.90;;;;;;5047024;28;20060;-75
2023/04/13 09:38:52;;;;;;;1.30;0.70;;;6.80;99.90;;;;;;5053492;28;20045;-74
2023/04/13 09:41:27;;;;;;;;;;;6.70;99.90;;;;;;5054232;28;20056;-75
2023/04/13 09:43:53;;;;;;;1.60;0.90;;;6.60;99.90;;;;;;5053101;28;20376;-75
2023/04/13 09:46:19;;;;;;;1.10;0.60;;;6.60;99.90;;;;;;5052946;28;20045;-76
2023/04/13 09:48:44;;;;;;;1.02;0.60;;;6.60;99.90;;;;;;5053667;28;20110;-74
2023/04/13 09:51:11;;;;;;;0.65;0.50;;;6.50;99.90;;;;;;5045420;28;20041;-74
2023/04/13 09:53:46;;;;;;;1.17;0.50;;;6.50;99.90;;;;;;5053650;28;20062;-74
2023/04/13 09:56:12;;;;;;;1.25;0.73;;;6.50;99.90;;;;;;5053392;28;20078;-75
2023/04/13 09:58:45;;;;;;;1.38;0.60;;;6.50;99.90;;;;;;5052132;28;20056;-76
2023/04/13 10:01:14;;;;;;;1.48;0.60;;;6.40;99.90;;;;;;5053033;28;20044;-76
2023/04/13 10:03:41;;;;;;;1.50;0.70;;;6.40;99.90;;;;;;5053051;28;20044;-78
2023/04/13 10:06:07;;;;;;;1.83;0.70;;;6.40;99.90;;;;;;5052654;28;20101;-79
2023/04/13 10:08:36;;;;;;;1.67;0.95;;;6.40;99.90;;;;;;5051392;28;20041;-77
2023/04/13 10:11:03;;;;;;;1.90;0.73;;;6.40;99.90;;;;;;5052636;28;20045;-79
2023/04/13 10:13:40;;;;;;;0.88;0.50;;;6.50;99.90;;;;;;5053057;28;20094;-77
2023/04/13 10:16:32;;;;;;;2.08;0.60;;;6.60;99.90;;;;;;5052199;28;20080;-80
2023/04/13 10:19:06;;;;;;;2.83;0.60;;;6.70;99.90;;;;;;5053167;28;20132;-80
2023/04/13 10:21:38;;;;;;;1.00;0.60;;;7.10;99.90;;;;;;5051809;28;20045;-79
2023/04/13 10:24:08;;;;;;;1.48;0.68;;;7.60;99.90;;;;;;5052081;28;20045;-79
2023/04/13 10:26:36;;;;;;;1.75;0.73;;;8.00;99.90;;;;;;5052187;28;20044;-80
2023/04/13 10:29:03;;;;;;;2.75;1.10;;;8.40;99.90;;;;;;5052514;28;20061;-81
2023/04/13 10:31:38;;;;;;;2.50;0.80;;;8.80;99.90;;;;;;5052037;28;20045;-80
2023/04/13 10:34:08;;;;;;;1.90;0.90;;;9.10;99.90;;;;;;5051844;28;20079;-79
2023/04/13 10:36:37;;;;;;;1.50;0.80;;;9.20;99.90;;;;;;5051424;28;20053;-75
2023/04/13 10:39:03;;;;;;;3.85;1.15;;;9.20;99.90;;;;;;5052083;28;20124;-75
2023/04/13 10:41:28;;;;;;;1.85;1.00;;;9.10;99.90;;;;;;5052272;28;20164;-75
2023/04/13 10:44:07;;;;;;;2.10;1.13;;;9.00;99.90;;;;;;5051292;28;20045;-75
2023/04/13 10:46:36;;;;;;;4.05;1.15;;;9.00;99.90;;;;;;5050790;28;20056;-75
2023/04/13 10:49:03;;;;;;;3.20;1.20;;;8.80;99.90;;;;;;5051763;28;20045;-76
2023/04/13 10:51:39;;;;;;;3.60;1.20;;;8.70;99.90;;;;;;5035779;28;20055;-78
2023/04/13 10:54:06;;;;;;;2.67;0.98;;;8.40;99.90;;;;;;5052619;28;20430;-78
2023/04/13 10:56:32;;;;;;;6.38;1.80;;;8.10;99.90;;;;;;5053395;28;20060;-80
2023/04/13 10:58:58;;;;;;;3.75;1.27;;;7.80;99.90;;;;;;5052503;28;20132;-80
2023/04/13 11:01:24;;;;;;;4.85;1.45;;;7.50;99.90;;;;;;5051029;28;20123;-78
2023/04/13 11:03:50;;;;;;;4.15;1.55;;;7.40;99.90;;;;;;5051135;28;20060;-78
2023/04/13 11:06:16;;;;;;;4.07;1.60;;;7.50;99.90;;;;;;5050447;28;20110;-80
2023/04/13 11:08:42;;;;;;;5.20;1.95;;;7.70;99.90;;;;;;5051621;28;20056;-79
2023/04/13 11:11:10;;;;;;;4.03;1.80;;;7.90;99.90;;;;;;5050869;28;20041;-81
2023/04/13 11:13:46;;;;;;;5.07;1.42;;;8.00;99.90;;;;;;5051342;28;20409;-80
2023/04/13 11:16:12;;;;;;;4.80;2.03;;;8.20;99.90;;;;;;5047486;28;20049;-82
2023/04/13 11:18:38;;;;;;;5.43;1.58;;;8.30;99.90;;;;;;5026494;28;20110;-81
2023/04/13 11:21:12;;;;;;;6.07;1.58;;;8.30;99.90;;;;;;5042553;28;20037;-83
2023/04/13 11:23:37;;;;;;;6.30;1.65;;;8.40;99.90;;;;;;5052026;28;20052;-81
2023/04/13 11:26:04;;;;;;;7.85;1.70;;;8.50;99.90;;;;;;5051969;28;20405;-81
2023/04/13 11:28:37;;;;;;;6.15;1.40;;;8.50;99.90;;;;;;5051298;28;20128;-84
2023/04/13 11:31:05;;;;;;;4.00;1.40;;;8.40;99.90;;;;;;5033477;28;20033;-86
2023/04/13 11:33:32;;;;;;;7.03;1.27;;;8.40;99.90;;;;;;5051034;28;20041;-80
2023/04/13 11:35:59;;;;;;;5.53;1.75;;;8.30;99.90;;;;;;5038247;28;20053;-83
2023/04/13 11:38:28;;;;;;;5.68;1.73;;;8.40;99.90;;;;;;5034890;28;20697;-86
2023/04/13 11:41:02;;;;;;;4.38;1.38;;;8.40;99.90;;;;;;5050654;28;20049;-89
2023/04/13 11:43:28;;;;;;;5.57;1.65;;;8.50;99.90;;;;;;5050939;28;20062;-88
2023/04/13 11:45:54;;;;;;;3.40;1.30;;;8.40;99.90;;;;;;5050747;28;20060;-86
2023/04/13 11:48:20;;;;;;;3.50;1.70;;;8.40;99.90;;;;;;5034464;28;20049;-85
2023/04/13 11:50:48;;;;;;;4.95;1.30;;;8.50;99.90;;;;;;5050986;28;20094;-85
2023/04/13 11:53:14;;;;;;;7.28;1.88;;;8.50;99.90;;;;;;5049728;28;20048;-84
2023/04/13 11:55:40;;;;;;;6.30;1.70;;;8.60;99.90;;;;;;5051024;28;20041;-85
2023/04/13 11:58:14;;;;;;;3.50;1.40;;;8.80;99.90;;;;;;5050752;28;20048;-84
2023/04/13 12:00:40;;;;;;;4.43;1.30;;;9.00;99.90;;;;;;5032250;28;20389;-83
2023/04/13 12:03:14;;;;;;;3.38;1.10;;;9.20;99.90;;;;;;5050105;28;20539;-85
2023/04/13 12:05:42;;;;;;;4.53;1.35;;;9.20;99.90;;;;;;5032011;28;20053;-83
2023/04/13 12:08:08;;;;;;;6.97;1.42;;;9.10;99.90;;;;;;5033693;28;20136;-86
2023/04/13 12:10:35;;;;;;;3.25;1.20;;;8.90;99.90;;;;;;5033176;28;20052;-84
2023/04/13 12:13:10;;;;;;;6.10;1.40;;;8.70;99.90;;;;;;5050239;28;20167;-86
2023/04/13 12:15:36;;;;;;;5.03;1.40;;;8.60;99.90;;;;;;5051109;28;20179;-87
2023/04/13 12:18:03;;;;;;;4.72;1.60;;;8.50;99.90;;;;;;5034399;28;20049;-87
2023/04/13 12:20:38;;;;;;;7.75;1.77;;;8.40;99.90;;;;;;5052267;28;20048;-87
2023/04/13 12:23:24;;;;;;;5.05;1.40;;;8.30;99.90;;;;;;5050426;28;20150;-88
2023/04/13 12:26:01;;;;;;;9.20;1.48;;;8.30;99.90;;;;;;5050262;28;20052;-85
2023/04/13 12:28:36;;;;;;;6.97;1.58;;;8.30;99.90;;;;;;5051316;28;20056;-89
2023/04/13 12:31:10;;;;;;;8.30;1.60;;;8.40;99.90;;;;;;5049586;28;20045;-83
2023/04/13 12:33:37;;;;;;;4.88;1.58;;;8.50;99.90;;;;;;5051489;28;20056;-86
2023/04/13 12:36:10;;;;;;;3.20;1.30;;;8.60;99.90;;;;;;5049184;28;20049;-85
2023/04/13 12:38:36;;;;;;;4.45;1.25;;;8.70;99.90;;;;;;5033044;28;20052;-87
2023/04/13 12:41:02;;;;;;;4.88;1.27;;;8.80;99.90;;;;;;5049761;28;20064;-85
2023/04/13 12:43:28;;;;;;;3.22;1.42;;;8.80;99.90;;;;;;5050478;28;20059;-86
2023/04/13 12:45:54;;;;;;;6.53;1.23;;;8.90;99.90;;;;;;5049480;28;20041;-87
2023/04/13 12:48:21;;;;;;;5.57;1.52;;;9.00;99.90;;;;;;5050752;28;20060;-85
2023/04/13 12:50:47;;;;;;;3.42;1.33;;;8.90;99.90;;;;;;5050667;28;20076;-85
2023/04/13 12:53:13;;;;;;;5.03;1.38;;;8.90;99.90;;;;;;5050071;28;20103;-83
2023/04/13 12:55:40;;;;;;;4.10;1.50;;;8.80;99.90;;;;;;5050894;28;20102;-87
2023/04/13 12:58:05;;;;;;;5.57;1.38;;;8.80;99.90;;;;;;5048973;28;20055;-85
2023/04/13 13:00:32;;;;;;;4.47;1.40;;;9.20;99.90;;;;;;4999887;28;20119;-83